Time;durP1;ratioP1;P1;durP2;ratioP2;P2;SDS_P1;SDS_P2;PMS_P1;PMS_P2;Temp;Humidity;BMP_temperature;BMP_pressure;BME280_temperature;BME280_humidity;BME280_pressure;Samples;Min_cycle;Max_cycle;Signal;HPM_P1;HPM_P2
2023/09/19 00:02:06;;;;;;;;;0.00;0.00;;;;;19.19;48.24;100909.50;5081755;28;45339;-65
2023/09/19 00:04:32;;;;;;;;;2.50;1.50;;;;;19.12;48.73;100903.63;5064134;28;45376;-65
2023/09/19 00:06:58;;;;;;;;;0.25;0.25;;;;;19.15;48.67;100904.31;5081448;28;46157;-64
2023/09/19 00:09:26;;;;;;;;;2.25;2.00;;;;;19.09;48.46;100901.94;5082487;28;45247;-64
2023/09/19 00:11:51;;;;;;;;;2.25;2.00;;;;;19.09;48.84;100911.75;5082554;28;45279;-64
2023/09/19 00:14:17;;;;;;;;;0.00;0.00;;;;;19.07;48.59;100906.50;5080974;28;45487;-64
2023/09/19 00:16:42;;;;;;;;;0.50;0.50;;;;;19.04;48.67;100903.97;5082654;28;45646;-64
2023/09/19 00:19:08;;;;;;;;;0.75;0.75;;;;;19.00;48.43;100899.72;5082308;28;45232;-64
2023/09/19 00:21:35;;;;;;;;;1.25;0.75;;;;;19.00;48.63;100905.94;5081581;28;45339;-64
2023/09/19 00:24:00;;;;;;;;;2.50;1.00;;;;;18.99;48.74;100906.88;5082045;28;45445;-64
2023/09/19 00:26:26;;;;;;;;;0.25;0.25;;;;;18.97;48.57;100914.03;5081630;28;46074;-64
2023/09/19 00:28:54;;;;;;;;;2.00;2.00;;;;;18.96;48.50;100908.81;5082194;28;45212;-64
2023/09/19 00:31:19;;;;;;;;;0.00;0.00;;;;;18.94;49.05;100918.66;5082344;28;48426;-64
2023/09/19 00:33:44;;;;;;;;;2.00;0.00;;;;;18.94;48.54;100919.53;5081928;28;45451;-64
2023/09/19 00:36:10;;;;;;;;;0.75;0.75;;;;;18.94;48.87;100915.97;5063643;28;55230;-64
2023/09/19 00:38:35;;;;;;;;;0.75;0.75;;;;;18.94;48.95;100921.31;5061359;28;45291;-64
2023/09/19 00:41:00;;;;;;;;;2.75;0.25;;;;;18.94;49.13;100922.19;5082257;28;45303;-64
2023/09/19 00:43:26;;;;;;;;;0.00;0.00;;;;;18.91;48.92;100924.97;5080689;28;47141;-64
2023/09/19 00:45:54;;;;;;;;;2.25;1.25;;;;;18.87;49.13;100928.69;5080538;28;46107;-64
2023/09/19 00:48:21;;;;;;;;;0.00;0.00;;;;;18.87;49.03;100931.34;5080384;28;45251;-64
2023/09/19 00:50:48;;;;;;;;;3.25;1.50;;;;;18.86;49.12;100931.44;5082222;28;45177;-64
2023/09/19 00:53:18;;;;;;;;;2.00;1.00;;;;;18.82;49.02;100934.22;5063984;28;45604;-64
2023/09/19 00:55:45;;;;;;;;;0.25;0.25;;;;;18.81;48.83;100939.63;5080920;28;46585;-64
2023/09/19 00:58:10;;;;;;;;;3.25;0.25;;;;;18.79;48.89;100929.06;5080178;28;45433;-64
2023/09/19 01:00:36;;;;;;;;;2.75;1.00;;;;;18.77;48.94;100930.91;5082003;28;45178;-64
2023/09/19 01:03:02;;;;;;;;;1.00;1.00;;;;;18.77;49.08;100928.25;5081930;28;45379;-64
2023/09/19 01:05:29;;;;;;;;;1.00;1.00;;;;;18.77;49.12;100938.03;5081541;28;45393;-64
2023/09/19 01:07:54;;;;;;;;;1.50;0.00;;;;;18.76;49.25;100936.31;5081622;28;46502;-64
2023/09/19 01:10:21;;;;;;;;;1.50;1.50;;;;;18.74;49.15;100939.03;5081538;28;45344;-64
2023/09/19 01:13:28;;;;;;;;;1.50;1.00;;;;;18.74;49.01;100940.81;5081614;28;45331;-64
2023/09/19 01:16:08;;;;;;;;;3.25;1.75;;;;;18.70;48.95;100940.09;5074967;28;46096;-64
2023/09/19 01:19:02;;;;;;;;;3.00;2.00;;;;;18.66;49.36;100933.19;5081231;28;45406;-64
2023/09/19 01:21:36;;;;;;;;;1.25;1.25;;;;;18.65;49.36;100939.44;5080234;28;45499;-64
2023/09/19 01:24:41;;;;;;;;;1.00;1.00;;;;;18.61;49.76;100930.72;5081283;28;45425;-64
2023/09/19 01:27:54;;;;;;;;;1.50;1.00;;;;;18.58;49.50;100943.31;5081182;28;46441;-64
2023/09/19 01:30:27;;;;;;;;;2.75;1.00;;;;;18.50;49.75;100933.88;5077346;28;45497;-64
2023/09/19 01:32:53;;;;;;;;;1.00;1.00;;;;;18.50;50.29;100947.19;5081591;28;45240;-64
2023/09/19 01:35:18;;;;;;;;;2.75;1.75;;;;;18.47;49.80;100942.00;5081048;28;45235;-64
2023/09/19 01:37:45;;;;;;;;;2.25;0.00;;;;;18.43;49.56;100937.75;5080852;28;46814;-64
2023/09/19 01:40:16;;;;;;;;;3.00;1.00;;;;;18.44;49.80;100942.13;5061092;28;45256;-65
2023/09/19 01:42:55;;;;;;;;;2.00;0.00;;;;;18.42;49.87;100945.78;5080110;28;45366;-64
2023/09/19 01:45:38;;;;;;;;;1.75;0.75;;;;;18.41;49.96;100952.91;5081010;28;45216;-64
2023/09/19 01:48:24;;;;;;;;;2.00;2.00;;;;;18.39;49.94;100952.13;5081027;28;45411;-64
2023/09/19 01:51:06;;;;;;;;;0.25;0.00;;;;;18.38;49.89;100954.81;5062411;28;45268;-64
2023/09/19 01:53:43;;;;;;;;;1.00;1.00;;;;;18.38;50.05;100953.03;5081019;28;45342;-65
2023/09/19 01:56:16;;;;;;;;;2.00;1.00;;;;;18.39;49.80;100946.78;5079288;28;45261;-64
2023/09/19 01:58:53;;;;;;;;;1.00;1.00;;;;;18.39;50.08;100949.47;5079279;28;46126;-64
2023/09/19 02:01:23;;;;;;;;;5.75;4.00;;;;;18.34;50.21;100952.31;5062262;28;45336;-64
2023/09/19 02:03:50;;;;;;;;;3.00;1.25;;;;;18.32;50.08;100963.94;5081257;28;45358;-65
2023/09/19 02:06:17;;;;;;;;;1.25;1.25;;;;;18.30;50.34;100949.84;5079243;28;45463;-64
2023/09/19 02:08:42;;;;;;;;;2.50;1.75;;;;;18.29;49.95;100958.78;5080743;28;47093;-64
2023/09/19 02:11:08;;;;;;;;;4.00;1.00;;;;;18.26;50.08;100953.56;5080398;28;45299;-64
2023/09/19 02:13:33;;;;;;;;;1.50;1.00;;;;;18.26;50.17;100972.19;5081208;28;45387;-64
2023/09/19 02:16:00;;;;;;;;;4.75;1.00;;;;;18.19;50.25;100956.50;5080768;28;45213;-64
2023/09/19 02:18:26;;;;;;;;;0.00;0.00;;;;;18.23;50.32;100964.34;5058337;28;47227;-64
2023/09/19 02:20:53;;;;;;;;;4.00;2.00;;;;;18.18;50.36;100961.88;5073795;28;45659;-64
2023/09/19 02:23:18;;;;;;;;;0.50;0.50;;;;;18.19;50.18;100967.13;5080659;28;45493;-64
2023/09/19 02:25:52;;;;;;;;;1.75;0.50;;;;;18.16;50.35;100955.75;5079767;28;45486;-65
2023/09/19 02:28:17;;;;;;;;;2.50;1.00;;;;;18.16;50.37;100964.63;5080644;28;45411;-64
2023/09/19 02:30:42;;;;;;;;;2.00;1.00;;;;;18.14;50.61;100960.28;5079554;28;45334;-64
2023/09/19 02:33:08;;;;;;;;;2.00;1.00;;;;;18.11;50.35;100963.06;5080486;28;45489;-64
2023/09/19 02:35:36;;;;;;;;;1.00;1.00;;;;;18.05;50.68;100950.91;5080361;28;45509;-64
2023/09/19 02:38:02;;;;;;;;;3.00;1.75;;;;;18.06;50.71;100957.06;5080302;28;45457;-64
2023/09/19 02:40:28;;;;;;;;;1.75;0.25;;;;;17.98;50.60;100944.97;5079989;28;45248;-64
2023/09/19 02:42:55;;;;;;;;;1.00;1.00;;;;;17.98;50.96;100957.41;5079140;28;45271;-65
2023/09/19 02:45:21;;;;;;;;;2.00;1.00;;;;;17.98;50.78;100963.56;5078873;28;45461;-64
2023/09/19 02:47:47;;;;;;;;;2.50;1.00;;;;;17.94;51.14;100959.31;5080169;28;45282;-64
2023/09/19 02:50:15;;;;;;;;;1.50;1.00;;;;;17.92;51.15;100958.47;5080232;28;45347;-64
2023/09/19 02:52:48;;;;;;;;;2.25;1.00;;;;;17.89;50.78;100955.09;5078935;28;45274;-64
2023/09/19 02:55:21;;;;;;;;;2.00;0.00;;;;;17.91;50.86;100963.88;5079545;27;45441;-63
2023/09/19 02:57:51;;;;;;;;;3.00;1.00;;;;;17.87;51.15;100964.00;5100364;27;45618;-64
2023/09/19 03:00:21;;;;;;;;;1.50;1.00;;;;;17.85;50.89;100967.66;5100380;27;45318;-64
2023/09/19 03:02:54;;;;;;;;;3.00;1.25;;;;;17.81;51.08;100964.25;5100270;27;45306;-64
2023/09/19 03:05:20;;;;;;;;;3.25;1.00;;;;;17.80;50.98;100959.84;5099345;27;45519;-63
2023/09/19 03:07:50;;;;;;;;;2.25;0.75;;;;;17.80;51.00;100959.00;5100224;27;46078;-64
2023/09/19 03:10:16;;;;;;;;;2.00;1.00;;;;;17.78;51.10;100956.38;5081607;27;45366;-63
2023/09/19 03:12:42;;;;;;;;;2.25;1.00;;;;;17.76;50.90;100954.72;5081960;27;45261;-63
2023/09/19 03:15:08;;;;;;;;;5.25;1.00;;;;;17.70;50.94;100948.72;5082298;27;45500;-63
2023/09/19 03:17:34;;;;;;;;;2.00;1.00;;;;;17.70;51.32;100958.50;5079642;28;45492;-64
2023/09/19 03:19:59;;;;;;;;;0.25;0.25;;;;;17.65;51.47;100957.84;5061569;28;45280;-63
2023/09/19 03:22:26;;;;;;;;;1.50;1.50;;;;;17.68;51.22;100947.94;5078092;28;45499;-64
2023/09/19 03:24:53;;;;;;;;;6.75;2.00;;;;;17.69;51.16;100959.44;5079562;28;45536;-64
2023/09/19 03:27:18;;;;;;;;;2.00;1.50;;;;;17.64;51.33;100948.97;5079487;28;45351;-64
2023/09/19 03:29:43;;;;;;;;;4.00;2.25;;;;;17.65;51.12;100947.22;5079743;28;45460;-63
2023/09/19 03:32:12;;;;;;;;;3.50;2.00;;;;;17.63;51.34;100944.59;5079692;28;45269;-64
2023/09/19 03:34:42;;;;;;;;;2.75;2.50;;;;;17.65;51.12;100944.56;5079808;28;45299;-63
2023/09/19 03:37:08;;;;;;;;;2.67;0.00;;;;;17.67;51.27;100951.53;5079266;28;46197;-64
2023/09/19 03:39:33;;;;;;;;;3.50;1.50;;;;;17.63;51.14;100949.91;5060871;28;45360;-63
2023/09/19 03:41:59;;;;;;;;;3.25;1.50;;;;;17.64;51.39;100958.75;5063509;28;45317;-63
2023/09/19 03:44:24;;;;;;;;;3.75;1.25;;;;;17.63;51.28;100959.69;5083000;28;45959;-64
2023/09/19 03:46:49;;;;;;;;;2.75;1.00;;;;;17.61;51.30;100959.75;5082822;28;45882;-63
2023/09/19 03:49:15;;;;;;;;;4.50;2.00;;;;;17.60;51.50;100957.16;5081930;28;45763;-63
2023/09/19 03:51:41;;;;;;;;;1.00;1.00;;;;;17.54;51.71;100942.31;5083098;28;45557;-63
2023/09/19 03:54:07;;;;;;;;;4.00;2.00;;;;;17.54;51.59;100958.25;5081784;27;45358;-63
2023/09/19 03:56:32;;;;;;;;;0.75;0.00;;;;;17.49;51.69;100953.13;5102753;27;46710;-64
2023/09/19 03:58:58;;;;;;;;;3.50;3.00;;;;;17.49;51.38;100955.78;5101782;27;45316;-63
2023/09/19 04:01:23;;;;;;;;;1.00;1.00;;;;;17.45;51.63;100945.34;5103364;27;45244;-64
2023/09/19 04:03:51;;;;;;;;;1.25;1.25;;;;;17.41;51.70;100938.41;5103370;27;45452;-64
2023/09/19 04:06:17;;;;;;;;;1.25;1.25;;;;;17.41;51.48;100947.25;5101752;27;47359;-63
2023/09/19 04:08:43;;;;;;;;;1.75;1.75;;;;;17.36;51.79;100939.47;5102997;27;45502;-64
2023/09/19 04:11:10;;;;;;;;;1.75;1.00;;;;;17.37;51.71;100948.28;5084428;27;45466;-64
2023/09/19 04:13:35;;;;;;;;;1.75;1.50;;;;;17.33;51.96;100941.38;5094538;27;45505;-63
2023/09/19 04:16:00;;;;;;;;;4.00;2.50;;;;;17.34;52.01;100948.41;5076670;28;46087;-63
2023/09/19 04:18:26;;;;;;;;;2.00;2.00;;;;;17.36;51.91;100951.88;5082133;28;45491;-63
2023/09/19 04:20:52;;;;;;;;;3.25;2.25;;;;;17.35;51.77;100956.31;5082220;28;45248;-63
2023/09/19 04:23:19;;;;;;;;;3.75;2.00;;;;;17.31;51.93;100949.41;5082573;28;45244;-63
2023/09/19 04:25:45;;;;;;;;;3.00;1.25;;;;;17.29;52.02;100943.28;5081312;27;47278;-63
2023/09/19 04:28:10;;;;;;;;;2.00;2.00;;;;;17.32;52.26;100950.25;5102902;27;45261;-63
2023/09/19 04:30:37;;;;;;;;;1.75;1.75;;;;;17.32;52.24;100945.84;5084440;27;45322;-63
2023/09/19 04:33:02;;;;;;;;;3.75;3.00;;;;;17.32;52.20;100945.84;5102784;27;45387;-63
2023/09/19 04:35:31;;;;;;;;;2.00;2.00;;;;;17.32;52.12;100953.78;5102509;27;45555;-63
2023/09/19 04:37:56;;;;;;;;;3.25;2.50;;;;;17.29;52.32;100950.38;5084394;27;45882;-63
2023/09/19 04:40:22;;;;;;;;;3.00;2.25;;;;;17.30;51.92;100957.44;5102409;27;45367;-63
2023/09/19 04:42:57;;;;;;;;;1.25;1.00;;;;;17.28;52.16;100954.84;5102782;27;45280;-63
2023/09/19 04:45:26;;;;;;;;;2.00;2.00;;;;;17.25;52.32;100962.91;5102335;27;45420;-63
2023/09/19 04:47:52;;;;;;;;;2.00;2.00;;;;;17.26;52.22;100950.50;5102297;27;45213;-63
2023/09/19 04:50:18;;;;;;;;;5.00;1.25;;;;;17.27;51.93;100954.88;5102291;27;45333;-63
2023/09/19 04:52:44;;;;;;;;;2.00;0.50;;;;;17.29;52.05;100951.25;5101821;27;45608;-63
2023/09/19 04:55:10;;;;;;;;;1.50;0.25;;;;;17.26;52.29;100950.50;5081513;27;45953;-64
2023/09/19 04:57:36;;;;;;;;;3.25;2.25;;;;;17.29;52.16;100953.03;5080736;28;45267;-64
2023/09/19 05:00:06;;;;;;;;;4.00;2.00;;;;;17.27;52.28;100957.53;5081692;28;45343;-64
2023/09/19 05:02:32;;;;;;;;;2.00;2.00;;;;;17.22;51.93;100958.59;5093564;27;45697;-64
2023/09/19 05:05:00;;;;;;;;;2.00;2.00;;;;;17.21;52.39;100964.81;5101829;27;45431;-64
2023/09/19 05:07:25;;;;;;;;;2.75;2.75;;;;;17.22;52.10;100971.03;5102118;27;45419;-64
2023/09/19 05:09:51;;;;;;;;;9.50;7.75;;;;;17.24;52.29;100978.91;5100509;27;45331;-64
2023/09/19 05:12:19;;;;;;;;;4.50;2.00;;;;;17.22;51.94;100978.97;5101594;27;56325;-66
2023/09/19 05:14:44;;;;;;;;;2.00;2.00;;;;;17.21;52.00;100972.78;5082473;27;46979;-64
2023/09/19 05:17:10;;;;;;;;;2.00;2.00;;;;;17.20;52.54;100973.72;5055584;28;45355;-64
2023/09/19 05:19:36;;;;;;;;;2.25;2.25;;;;;17.19;52.26;100977.31;5081150;28;45513;-62
2023/09/19 05:22:04;;;;;;;;;2.75;1.50;;;;;17.18;52.52;100972.91;5081202;28;45232;-63
2023/09/19 05:24:30;;;;;;;;;2.25;1.25;;;;;17.17;52.13;100979.16;5079083;28;46917;-64
2023/09/19 05:26:56;;;;;;;;;2.00;2.00;;;;;17.18;52.04;100986.19;5080836;28;45343;-63
2023/09/19 05:29:21;;;;;;;;;3.75;2.50;;;;;17.19;52.18;100987.94;5081078;28;45327;-64
2023/09/19 05:31:46;;;;;;;;;7.50;3.50;;;;;17.18;52.19;100991.50;5081075;28;45345;-63
2023/09/19 05:34:12;;;;;;;;;2.25;2.25;;;;;17.20;52.34;100989.63;5079112;27;47142;-63
2023/09/19 05:36:39;;;;;;;;;2.50;1.25;;;;;17.19;52.03;100990.59;5079342;27;45248;-67
2023/09/19 05:39:06;;;;;;;;;2.50;2.50;;;;;17.20;52.15;100994.94;5076668;27;45568;-63
2023/09/19 05:41:31;;;;;;;;;2.00;1.50;;;;;17.21;52.37;101001.16;5093210;27;45295;-61
2023/09/19 05:43:56;;;;;;;;;3.00;3.00;;;;;17.14;52.06;100995.19;5080703;27;45364;-63
2023/09/19 05:46:22;;;;;;;;;1.25;1.25;;;;;17.20;52.30;101004.72;5094486;27;45259;-63
2023/09/19 05:48:47;;;;;;;;;1.50;1.25;;;;;17.18;52.46;101001.25;5083233;27;45823;-63
2023/09/19 05:51:12;;;;;;;;;3.00;2.50;;;;;17.20;52.33;101007.38;5100956;27;45395;-63
2023/09/19 05:53:38;;;;;;;;;2.00;1.25;;;;;17.21;52.32;101009.97;5079332;27;45493;-63
2023/09/19 05:56:03;;;;;;;;;4.00;3.00;;;;;17.24;52.25;101013.44;5080340;28;45285;-72
2023/09/19 05:58:29;;;;;;;;;2.00;1.50;;;;;17.22;52.35;101008.19;5079269;28;45535;-65
2023/09/19 06:00:55;;;;;;;;;2.50;2.50;;;;;17.25;51.98;101013.38;5080148;28;59109;-66
2023/09/19 06:03:21;;;;;;;;;4.50;4.00;;;;;17.28;52.05;101023.03;5079146;28;46765;-65
2023/09/19 06:05:49;;;;;;;;;2.00;2.00;;;;;17.24;52.36;101014.28;5074764;28;54666;-66
2023/09/19 06:08:14;;;;;;;;;3.50;3.00;;;;;17.29;52.38;101027.41;5078500;28;45476;-65
2023/09/19 06:10:40;;;;;;;;;3.00;2.00;;;;;17.27;52.05;101019.50;5078878;28;45218;-65
2023/09/19 06:13:05;;;;;;;;;20.25;18.75;;;;;17.31;52.32;101028.22;5080330;28;46449;-65
2023/09/19 06:15:33;;;;;;;;;5.00;3.00;;;;;17.30;52.45;101026.50;5080144;28;45338;-67
2023/09/19 06:18:04;;;;;;;;;7.25;4.25;;;;;17.32;52.41;101029.94;5077902;28;45375;-68
2023/09/19 06:20:31;;;;;;;;;4.00;2.00;;;;;17.31;52.49;101014.94;5080445;28;45442;-68
2023/09/19 06:22:56;;;;;;;;;4.75;2.00;;;;;17.32;52.40;101028.16;5062097;28;47970;-67
2023/09/19 06:25:22;;;;;;;;;9.00;7.25;;;;;17.33;52.31;101032.56;5079833;28;45496;-67
2023/09/19 06:27:55;;;;;;;;;4.00;3.00;;;;;17.35;52.31;101033.34;5080605;28;45380;-67
2023/09/19 06:30:23;;;;;;;;;4.25;4.00;;;;;17.34;52.32;101038.72;5080633;28;45256;-67
2023/09/19 06:32:49;;;;;;;;;1.75;1.75;;;;;17.36;52.15;101036.88;5080137;28;45406;-67
2023/09/19 06:35:15;;;;;;;;;3.00;3.00;;;;;17.34;52.25;101028.09;5076420;28;45485;-68
2023/09/19 06:37:42;;;;;;;;;13.75;11.00;;;;;17.37;52.42;101038.59;5080463;28;45435;-68
2023/09/19 06:40:14;;;;;;;;;3.50;2.00;;;;;17.41;52.56;101039.34;5080392;27;45471;-70
2023/09/19 06:42:45;;;;;;;;;5.25;3.00;;;;;17.40;52.44;101041.16;5050873;28;48379;-69
2023/09/19 06:45:18;;;;;;;;;2.50;2.25;;;;;17.37;52.37;101041.25;5092383;27;45532;-69
2023/09/19 06:47:51;;;;;;;;;5.00;2.75;;;;;17.40;52.23;101043.81;5073904;27;45250;-69
2023/09/19 06:50:22;;;;;;;;;5.00;3.25;;;;;17.41;52.52;101047.31;5100527;27;45495;-70
2023/09/19 06:52:51;;;;;;;;;2.50;1.75;;;;;17.40;52.39;101043.81;5100418;27;46068;-70
2023/09/19 06:55:20;;;;;;;;;4.00;1.75;;;;;17.38;52.45;101046.53;5079567;28;45347;-70
2023/09/19 06:57:46;;;;;;;;;1.00;1.00;;;;;17.34;52.45;101036.06;5080198;28;45316;-70
2023/09/19 07:00:18;;;;;;;;;6.25;2.00;;;;;17.37;52.58;101041.25;5078606;28;45343;-70
2023/09/19 07:03:05;;;;;;;;;2.75;2.25;;;;;17.38;52.45;101041.22;5079975;28;46111;-69
2023/09/19 07:05:32;;;;;;;;;4.00;3.00;;;;;17.38;52.41;101035.91;5061368;28;45447;-70
2023/09/19 07:07:58;;;;;;;;;3.25;3.00;;;;;17.41;52.36;101044.66;5080083;28;45181;-70
2023/09/19 07:10:25;;;;;;;;;7.50;2.00;;;;;17.44;52.53;101047.22;5079634;28;45518;-70
2023/09/19 07:13:17;;;;;;;;;2.50;2.00;;;;;17.46;52.37;101042.69;5079825;28;45553;-70
2023/09/19 07:15:47;;;;;;;;;4.75;2.00;;;;;17.45;52.79;101044.50;5052284;28;45489;-70
2023/09/19 07:18:14;;;;;;;;;2.75;1.75;;;;;17.46;52.78;101048.88;5083199;28;45406;-70
2023/09/19 07:20:45;;;;;;;;;3.75;3.00;;;;;17.44;52.64;101053.38;5083452;28;45509;-70
2023/09/19 07:23:18;;;;;;;;;6.00;2.00;;;;;17.44;52.09;101056.03;5083122;28;45430;-70
2023/09/19 07:25:43;;;;;;;;;5.00;2.00;;;;;17.45;52.49;101046.28;5082690;28;45494;-70
2023/09/19 07:28:09;;;;;;;;;3.00;3.00;;;;;17.42;52.51;101041.97;5083253;28;45489;-70
2023/09/19 07:30:37;;;;;;;;;2.25;0.75;;;;;17.48;52.58;101047.06;5081991;28;45294;-70
2023/09/19 07:33:05;;;;;;;;;6.75;4.00;;;;;17.51;52.53;101046.06;5082987;28;45333;-71
2023/09/19 07:35:31;;;;;;;;;2.00;2.00;;;;;17.52;52.64;101048.66;5064791;28;45343;-70
2023/09/19 07:37:58;;;;;;;;;4.50;2.00;;;;;17.54;52.44;101040.63;5083190;28;45263;-70
2023/09/19 07:40:28;;;;;;;;;3.25;3.25;;;;;17.54;52.25;101036.16;5082781;28;45449;-70
2023/09/19 07:42:55;;;;;;;;;2.00;2.00;;;;;17.60;52.57;101045.69;5083221;28;46490;-70
2023/09/19 07:45:20;;;;;;;;;5.50;4.75;;;;;17.62;52.64;101043.84;5082644;28;45402;-70
2023/09/19 07:47:50;;;;;;;;;3.00;2.00;;;;;17.64;52.64;101043.78;5081724;28;45430;-70
2023/09/19 07:50:18;;;;;;;;;8.50;6.75;;;;;17.70;52.65;101043.56;5082956;28;45545;-70
2023/09/19 07:52:44;;;;;;;;;4.50;3.25;;;;;17.71;52.47;101029.34;5082995;28;45280;-70
2023/09/19 07:55:11;;;;;;;;;3.00;3.00;;;;;17.77;52.64;101044.16;5081868;28;45352;-71
2023/09/19 07:57:37;;;;;;;;;3.00;1.50;;;;;17.80;52.68;101033.44;5083027;28;45277;-71
2023/09/19 08:00:04;;;;;;;;;5.25;2.25;;;;;17.81;52.73;101037.78;5082505;28;45369;-71
2023/09/19 08:02:34;;;;;;;;;4.00;4.00;;;;;17.85;52.48;101034.97;5081503;28;47547;-70
2023/09/19 08:05:00;;;;;;;;;3.00;1.75;;;;;17.87;52.56;101038.44;5082505;28;45560;-71
2023/09/19 08:07:25;;;;;;;;;3.00;2.00;;;;;17.91;52.74;101043.63;5082948;28;45142;-70
2023/09/19 08:09:51;;;;;;;;;2.00;1.50;;;;;17.93;52.50;101045.28;5082491;28;45307;-71
2023/09/19 08:12:16;;;;;;;;;2.00;2.00;;;;;17.99;52.65;101049.53;5081382;28;46987;-71
2023/09/19 08:14:42;;;;;;;;;2.25;2.00;;;;;17.99;52.95;101042.41;5069939;28;45863;-70
2023/09/19 08:17:08;;;;;;;;;1.25;1.25;;;;;18.07;52.73;101036.78;5061396;28;45720;-70
2023/09/19 08:19:34;;;;;;;;;5.00;3.75;;;;;18.08;52.60;101040.31;5074388;28;45490;-70
2023/09/19 08:21:59;;;;;;;;;2.25;2.25;;;;;18.16;52.62;101055.03;5082865;28;45262;-70
2023/09/19 08:24:28;;;;;;;;;1.75;1.75;;;;;18.19;52.55;101043.41;5082085;28;45324;-70
2023/09/19 08:26:55;;;;;;;;;2.25;2.25;;;;;18.22;52.65;101045.94;5063908;28;45212;-69
2023/09/19 08:29:21;;;;;;;;;4.50;2.00;;;;;18.18;52.32;101039.88;5063369;28;45502;-70
2023/09/19 08:31:50;;;;;;;;;3.00;3.00;;;;;18.22;52.51;101045.94;5080905;28;46809;-70
2023/09/19 08:34:16;;;;;;;;;4.00;1.25;;;;;18.24;52.06;101040.53;5080857;28;45713;-70
2023/09/19 08:36:43;;;;;;;;;4.00;3.00;;;;;18.24;52.52;101056.50;5082029;28;50613;-70
2023/09/19 08:39:08;;;;;;;;;1.50;1.50;;;;;18.27;52.34;101046.59;5082024;28;45507;-70
2023/09/19 08:41:34;;;;;;;;;1.00;1.00;;;;;18.32;52.06;101044.59;5063798;28;47031;-70
2023/09/19 08:44:03;;;;;;;;;4.75;1.25;;;;;18.30;52.17;101049.16;5064025;28;45251;-70
2023/09/19 08:46:31;;;;;;;;;2.75;2.50;;;;;18.32;52.25;101043.75;5082240;28;45323;-70
2023/09/19 08:49:17;;;;;;;;;0.25;0.25;;;;;18.33;52.46;101040.16;5082001;28;45261;-70
2023/09/19 08:51:45;;;;;;;;;5.00;2.75;;;;;18.39;52.22;101050.56;5082014;28;46233;-70
2023/09/19 08:54:32;;;;;;;;;3.75;2.75;;;;;18.45;52.20;101054.75;5070018;27;45732;-70
2023/09/19 08:57:02;;;;;;;;;2.50;1.25;;;;;18.44;52.18;101040.59;5102278;27;45560;-70
2023/09/19 08:59:29;;;;;;;;;2.75;2.75;;;;;18.52;51.77;101045.56;5083918;27;45446;-70
2023/09/19 09:01:56;;;;;;;;;2.00;2.00;;;;;18.54;51.65;101046.38;5083779;27;47554;-70
2023/09/19 09:04:22;;;;;;;;;4.00;2.00;;;;;18.57;51.76;101042.72;5102340;27;45331;-70
2023/09/19 09:06:52;;;;;;;;;1.75;1.00;;;;;18.61;52.16;101044.31;5102443;27;45311;-71
2023/09/19 09:09:18;;;;;;;;;2.00;1.50;;;;;18.63;51.94;101031.81;5102056;27;45256;-70
2023/09/19 09:11:43;;;;;;;;;0.50;0.50;;;;;18.72;51.71;101036.72;5101948;27;46342;-70
2023/09/19 09:14:09;;;;;;;;;2.25;0.75;;;;;18.78;51.47;101040.91;5093727;27;45448;-70
2023/09/19 09:16:35;;;;;;;;;3.00;0.25;;;;;18.83;51.76;101022.97;5063498;28;45329;-69
2023/09/19 09:19:01;;;;;;;;;1.00;0.50;;;;;18.88;51.21;101030.72;5081632;28;45625;-70
2023/09/19 09:21:27;;;;;;;;;1.75;1.50;;;;;18.97;51.40;101030.34;5081390;28;46076;-70
2023/09/19 09:23:53;;;;;;;;;2.00;2.00;;;;;19.05;51.33;101035.34;5081537;28;45431;-70
2023/09/19 09:26:38;;;;;;;;;2.33;1.00;;;;;19.12;51.37;101034.97;5062933;28;45333;-70
2023/09/19 09:29:04;;;;;;;;;4.25;2.50;;;;;19.19;51.49;101032.91;5073637;28;45332;-70
2023/09/19 09:31:29;;;;;;;;;3.00;1.50;;;;;19.24;51.52;101028.22;5080867;28;53537;-70
2023/09/19 09:33:56;;;;;;;;;1.00;1.00;;;;;19.35;51.06;101041.06;5081515;28;45453;-70
2023/09/19 09:36:34;;;;;;;;;1.75;1.25;;;;;19.44;51.26;101032.63;5081483;28;45364;-70
2023/09/19 09:39:15;;;;;;;;;1.00;1.00;;;;;19.49;50.81;101017.28;5080700;28;45360;-70
2023/09/19 09:41:41;;;;;;;;;1.50;1.50;;;;;19.62;50.81;101032.69;5080954;28;46174;-69
2023/09/19 09:44:31;;;;;;;;;3.00;0.25;;;;;19.77;50.83;101037.31;5081207;28;45342;-70
2023/09/19 09:47:27;;;;;;;;;2.00;2.00;;;;;19.85;50.69;101030.75;5063163;28;45304;-69
2023/09/19 09:49:54;;;;;;;;;3.25;1.50;;;;;19.92;49.69;101016.19;5080947;28;45501;-69
2023/09/19 09:52:24;;;;;;;;;1.00;1.00;;;;;20.03;49.99;101026.34;5079559;28;47470;-69
2023/09/19 09:55:08;;;;;;;;;2.00;1.00;;;;;20.11;50.08;101022.34;5077116;27;45668;-69
2023/09/19 09:57:34;;;;;;;;;2.25;1.50;;;;;20.13;50.09;101020.44;5101720;27;45288;-69
2023/09/19 10:02:44;;;;;;;;;1.00;1.00;;;;;20.29;49.63;101025.88;5101397;27;45974;-69
2023/09/19 10:05:43;;;;;;;;;1.00;1.00;;;;;20.39;49.41;101020.97;5082597;27;45869;-69
2023/09/19 10:08:12;;;;;;;;;0.33;0.33;;;;;20.46;48.81;101024.16;5100870;27;45449;-69
2023/09/19 10:13:13;;;;;;;;;3.00;0.00;;;;;20.61;48.47;101019.84;5101172;27;45601;-69
2023/09/19 10:15:42;;;;;;;;;0.75;0.50;;;;;20.65;49.08;101009.88;5051543;28;45495;-68
2023/09/19 10:18:10;;;;;;;;;2.50;0.75;;;;;20.70;48.41;101013.16;5080563;28;45556;-69
2023/09/19 10:20:38;;;;;;;;;1.00;1.00;;;;;20.71;48.80;101002.44;5080710;28;45358;-69
2023/09/19 10:23:10;;;;;;;;;3.00;1.50;;;;;20.84;48.79;101007.13;5080331;28;45357;-69
2023/09/19 10:25:38;;;;;;;;;2.50;1.75;;;;;20.89;48.40;101000.59;5079850;28;45285;-69
2023/09/19 10:28:10;;;;;;;;;0.67;0.67;;;;;21.01;48.16;100995.56;5080786;28;45308;-69
2023/09/19 10:30:43;;;;;;;;;1.00;0.75;;;;;21.06;47.77;100986.31;5080576;28;45314;-69
2023/09/19 10:33:09;;;;;;;;;1.75;0.25;;;;;21.16;47.75;101000.06;5080290;28;46130;-69
2023/09/19 10:35:40;;;;;;;;;3.00;2.00;;;;;21.23;47.64;100998.78;5080341;28;45350;-70
2023/09/19 10:38:06;;;;;;;;;0.67;0.67;;;;;21.36;47.47;101009.66;5100995;27;45200;-70
2023/09/19 10:40:35;;;;;;;;;0.00;0.00;;;;;21.43;47.73;101007.47;5100472;27;45232;-68
2023/09/19 10:43:07;;;;;;;;;2.50;1.75;;;;;21.52;47.03;100988.28;5100720;27;46029;-69
2023/09/19 10:45:34;;;;;;;;;2.00;1.00;;;;;21.62;46.92;100996.66;5082232;27;45411;-69
2023/09/19 10:48:03;;;;;;;;;0.50;0.50;;;;;21.69;46.87;100994.50;5082526;27;45317;-70
2023/09/19 10:50:34;;;;;;;;;0.50;0.25;;;;;21.81;47.17;101001.84;5081358;27;45268;-70
2023/09/19 10:53:04;;;;;;;;;2.25;1.25;;;;;21.95;46.79;101005.50;5098900;27;46157;-70
2023/09/19 10:55:32;;;;;;;;;0.00;0.00;;;;;22.03;46.62;100997.91;5075023;28;45468;-70
2023/09/19 10:58:00;;;;;;;;;3.50;1.00;;;;;22.11;46.83;100984.91;5075820;28;45367;-70
2023/09/19 11:00:27;;;;;;;;;1.00;0.00;;;;;22.22;46.99;100986.97;5077873;28;45258;-70
2023/09/19 11:03:11;;;;;;;;;0.75;0.75;;;;;22.28;46.72;100986.59;5078613;28;47119;-71
2023/09/19 11:05:40;;;;;;;;;2.00;1.00;;;;;22.29;46.34;100979.44;5078719;28;45597;-70
2023/09/19 11:08:12;;;;;;;;;3.50;1.50;;;;;22.38;45.95;100987.81;5080045;28;45375;-70
2023/09/19 11:10:48;;;;;;;;;1.00;1.00;;;;;22.38;46.89;101009.22;5078357;28;45536;-70
2023/09/19 11:13:34;;;;;;;;;1.00;1.00;;;;;22.37;46.47;100979.88;5078508;28;47355;-71
2023/09/19 11:16:00;;;;;;;;;1.00;0.00;;;;;22.38;45.74;100987.81;5079847;28;45477;-70
2023/09/19 11:18:41;;;;;;;;;1.00;0.00;;;;;22.38;45.89;100982.44;5068107;27;45391;-70
2023/09/19 11:21:30;;;;;;;;;2.00;1.00;;;;;22.39;46.11;100983.34;5098861;27;45513;-71
2023/09/19 11:24:24;;;;;;;;;0.00;0.00;;;;;22.40;45.62;100988.59;5096130;27;46356;-70
2023/09/19 11:26:51;;;;;;;;;1.50;0.75;;;;;22.38;46.06;100981.59;5067635;28;45339;-71
2023/09/19 11:29:28;;;;;;;;;1.00;0.33;;;;;22.44;45.54;100980.34;5079837;28;45313;-69
2023/09/19 11:31:55;;;;;;;;;0.00;0.00;;;;;22.43;45.45;100976.84;5079673;28;45354;-71
2023/09/19 11:34:36;;;;;;;;;1.00;1.00;;;;;22.40;45.29;100964.50;5079604;28;46026;-70
2023/09/19 11:37:13;;;;;;;;;2.00;0.00;;;;;22.41;45.17;100954.63;5077834;28;45433;-71
2023/09/19 11:39:40;;;;;;;;;0.00;0.00;;;;;22.45;44.95;100968.69;5079751;28;45317;-70